Time;durP1;ratioP1;P1;durP2;ratioP2;P2;SDS_P1;SDS_P2;PMS_P1;PMS_P2;Temp;Humidity;BMP_temperature;BMP_pressure;BME280_temperature;BME280_humidity;BME280_pressure;Samples;Min_cycle;Max_cycle;Signal;HPM_P1;HPM_P2
2023/05/13 00:00:37;;;;;;;8.52;7.50;;;;;;;11.13;100.00;101339.38;6170376;23;20093;-67
2023/05/13 00:03:03;;;;;;;8.70;7.72;;;;;;;11.14;100.00;101343.69;6140167;23;20009;-67
2023/05/13 00:05:30;;;;;;;8.80;8.02;;;;;;;11.14;100.00;101343.69;6172038;23;20102;-67
2023/05/13 00:08:00;;;;;;;8.90;8.13;;;;;;;10.82;100.00;101295.22;6135730;23;20567;-67
2023/05/13 00:10:27;;;;;;;9.23;8.32;;;;;;;11.03;100.00;101336.31;6142230;23;20049;-67
2023/05/13 00:12:53;;;;;;;11.75;8.98;;;;;;;11.06;100.00;101351.06;6141001;23;20072;-67
2023/05/13 00:15:20;;;;;;;10.00;8.75;;;;;;;11.03;100.00;101357.31;6172767;23;20106;-67
2023/05/13 00:17:46;;;;;;;12.15;8.45;;;;;;;10.36;100.00;101261.28;6136003;23;20032;-67
2023/05/13 00:20:13;;;;;;;8.40;7.60;;;;;;;10.89;100.00;101338.69;6170740;23;20059;-67
2023/05/13 00:22:39;;;;;;;8.07;7.32;;;;;;;10.95;100.00;101354.19;6137934;23;20029;-67
2023/05/13 00:25:06;;;;;;;8.68;7.88;;;;;;;10.93;100.00;101351.59;6171941;23;20023;-67
2023/05/13 00:27:32;;;;;;;8.60;7.70;;;;;;;9.79;100.00;101153.50;6142470;23;20805;-67
2023/05/13 00:29:59;;;;;;;8.57;7.82;;;;;;;10.94;100.00;101350.69;6114851;23;20056;-67
2023/05/13 00:32:26;;;;;;;9.60;8.70;;;;;;;10.88;100.00;101350.09;6138499;23;20096;-67
2023/05/13 00:34:52;;;;;;;11.02;8.43;;;;;;;10.86;100.00;101355.41;6169007;23;20020;-67
2023/05/13 00:37:19;;;;;;;9.80;8.52;;;;;;;10.46;100.00;101286.22;6123036;23;20040;-67
2023/05/13 00:39:45;;;;;;;10.80;9.73;;;;;;;10.84;100.00;101353.78;6169632;23;20020;-67
2023/05/13 00:42:12;;;;;;;12.48;8.63;;;;;;;10.88;100.00;101356.19;6142624;23;20024;-67
2023/05/13 00:44:39;;;;;;;9.65;8.75;;;;;;;10.56;100.00;101321.69;6171485;23;20016;-67
2023/05/13 00:47:06;;;;;;;8.23;7.47;;;;;;;10.59;100.00;101302.31;6140217;23;20024;-67
2023/05/13 00:49:33;;;;;;;9.38;8.50;;;;;;;10.70;100.00;101320.22;6171996;23;20577;-67
2023/05/13 00:52:00;;;;;;;8.10;7.40;;;;;;;10.98;100.00;101361.91;6143859;23;20106;-67
2023/05/13 00:54:28;;;;;;;8.73;7.88;;;;;;;10.72;100.00;101316.63;6173075;23;20075;-67
2023/05/13 00:56:55;;;;;;;10.25;8.18;;;;;;;11.07;100.00;101379.06;6137515;23;20065;-67
2023/05/13 00:59:27;;;;;;;8.90;8.00;;;;;;;10.65;100.00;101295.97;6168455;23;20047;-67
2023/05/13 01:02:06;;;;;;;9.05;8.30;;;;;;;11.00;100.00;101340.84;6142488;23;20050;-67
2023/05/13 01:04:58;;;;;;;10.75;8.65;;;;;;;11.05;100.00;101354.63;6169700;23;20254;-67
2023/05/13 01:07:47;;;;;;;10.77;8.93;;;;;;;10.06;100.00;101200.47;6137492;23;20029;-67
2023/05/13 01:10:34;;;;;;;13.15;9.80;;;;;;;11.06;100.00;101362.41;6171698;23;20024;-67
2023/05/13 01:13:07;;;;;;;9.57;8.60;;;;;;;11.07;100.00;101358.88;6112416;23;20349;-67
2023/05/13 01:15:40;;;;;;;12.45;7.97;;;;;;;11.00;100.00;101360.06;6171961;23;20036;-67
2023/05/13 01:18:17;;;;;;;14.77;8.70;;;;;;;10.91;100.00;101371.84;6138625;23;20070;-66
2023/05/13 01:20:45;;;;;;;11.77;8.30;;;;;;;10.58;100.00;101325.09;6169983;23;20048;-66
2023/05/13 01:23:12;;;;;;;9.30;8.35;;;;;;;10.64;100.00;101347.59;6141305;23;20108;-67
2023/05/13 01:25:39;;;;;;;10.48;8.30;;;;;;;10.78;100.00;101368.00;6171376;23;20039;-66
2023/05/13 01:28:07;;;;;;;10.98;8.80;;;;;;;10.64;100.00;101337.09;6136430;23;20566;-67
2023/05/13 01:30:35;;;;;;;10.40;9.00;;;;;;;10.86;100.00;101370.31;6167449;23;20110;-67
2023/05/13 01:33:02;;;;;;;8.60;7.80;;;;;;;10.45;100.00;101302.06;6137324;23;20768;-67
2023/05/13 01:35:30;;;;;;;10.38;9.35;;;;;;;10.43;100.00;101298.66;6169735;23;20048;-66
2023/05/13 01:37:56;;;;;;;9.15;8.25;;;;;;;10.64;100.00;101333.63;6140477;23;20204;-66
2023/05/13 01:40:23;;;;;;;10.90;9.15;;;;;;;10.77;100.00;101356.66;6168121;23;20032;-67
2023/05/13 01:42:56;;;;;;;9.07;8.23;;;;;;;9.58;100.00;101163.97;6144393;23;20028;-67
2023/05/13 01:45:22;;;;;;;15.13;9.80;;;;;;;10.82;100.00;101379.25;6142378;23;20012;-67
2023/05/13 01:47:49;;;;;;;13.65;9.35;;;;;;;10.83;100.00;101378.34;6138585;23;20710;-66
2023/05/13 01:50:15;;;;;;;10.05;8.70;;;;;;;10.73;100.00;101375.25;6172063;23;20036;-67
2023/05/13 01:52:42;;;;;;;14.25;10.27;;;;;;;10.85;100.00;101381.75;6140834;23;20020;-67
2023/05/13 01:55:09;;;;;;;9.43;8.50;;;;;;;10.49;100.00;101329.88;6141721;23;20073;-67
2023/05/13 01:57:35;;;;;;;10.40;9.35;;;;;;;10.44;100.00;101308.22;6142095;23;20021;-66
2023/05/13 02:00:03;;;;;;;11.05;9.93;;;;;;;10.69;100.00;101358.75;6169772;23;20096;-66
2023/05/13 02:02:29;;;;;;;9.90;8.93;;;;;;;10.94;100.00;101384.84;6138732;23;20048;-66
2023/05/13 02:04:56;;;;;;;10.95;9.43;;;;;;;10.70;100.00;101362.22;6170706;23;20501;-67
2023/05/13 02:07:22;;;;;;;11.48;9.48;;;;;;;11.01;100.00;101382.78;6137262;23;20097;-67
2023/05/13 02:09:57;;;;;;;14.40;10.13;;;;;;;10.98;100.00;101381.16;6166151;23;20012;-66
2023/05/13 02:12:25;;;;;;;11.43;9.00;;;;;;;10.99;100.00;101392.53;6118341;23;20021;-66
2023/05/13 02:14:54;;;;;;;10.30;8.93;;;;;;;11.02;100.00;101381.88;6170353;23;20021;-67
2023/05/13 02:17:21;;;;;;;12.15;9.80;;;;;;;11.00;100.00;101383.69;6139725;23;20058;-67
2023/05/13 02:19:48;;;;;;;10.52;9.40;;;;;;;10.92;100.00;101380.56;6164130;23;20372;-67
2023/05/13 02:22:14;;;;;;;10.73;9.40;;;;;;;10.93;100.00;101379.66;6133680;23;20065;-67
2023/05/13 02:24:40;;;;;;;12.90;9.35;;;;;;;11.00;100.00;101388.13;6168095;23;20533;-67
2023/05/13 02:27:11;;;;;;;19.63;9.10;;;;;;;10.67;100.00;101349.25;6138958;23;20700;-67
2023/05/13 02:29:38;;;;;;;12.05;9.52;;;;;;;10.92;100.00;101389.28;6164656;23;20024;-67
2023/05/13 02:32:04;;;;;;;11.77;9.40;;;;;;;10.86;100.00;101391.31;6137474;23;20020;-67
2023/05/13 02:34:31;;;;;;;11.82;9.20;;;;;;;10.49;100.00;101322.00;6170134;23;20033;-67
2023/05/13 02:36:57;;;;;;;11.43;10.30;;;;;;;10.83;100.00;101392.31;6120763;23;20043;-67
2023/05/13 02:39:24;;;;;;;12.25;9.55;;;;;;;10.52;100.00;101341.09;6167315;23;20024;-67
2023/05/13 02:41:50;;;;;;;10.90;9.80;;;;;;;10.74;100.00;101367.31;6138369;23;20033;-67
2023/05/13 02:44:17;;;;;;;10.63;9.27;;;;;;;10.91;100.00;101392.84;6143941;23;20051;-67
2023/05/13 02:46:43;;;;;;;11.55;10.05;;;;;;;10.49;100.00;101324.63;6138810;23;20036;-67
2023/05/13 02:49:10;;;;;;;11.00;8.68;;;;;;;10.66;100.00;101355.41;6168719;23;20017;-67
2023/05/13 02:51:36;;;;;;;12.88;10.13;;;;;;;10.88;100.00;101389.47;6140607;23;20044;-67
2023/05/13 02:54:02;;;;;;;11.90;9.88;;;;;;;10.37;100.00;101321.59;6159224;23;20049;-67
2023/05/13 02:56:29;;;;;;;18.00;9.52;;;;;;;10.81;100.00;101395.94;6138937;23;20029;-67
2023/05/13 02:58:55;;;;;;;10.68;9.63;;;;;;;10.73;100.00;101394.47;6170002;23;20011;-67
2023/05/13 03:01:22;;;;;;;13.43;9.60;;;;;;;10.75;100.00;101394.41;6134179;23;20025;-67
2023/05/13 03:03:49;;;;;;;9.00;8.30;;;;;;;10.72;100.00;101405.91;6168112;23;20036;-67
2023/05/13 03:06:15;;;;;;;13.77;10.13;;;;;;;10.69;100.00;101392.88;6137047;23;20025;-67
2023/05/13 03:08:41;;;;;;;10.18;9.18;;;;;;;10.70;100.00;101399.81;6160231;23;20016;-67
2023/05/13 03:11:08;;;;;;;12.93;10.05;;;;;;;10.69;100.00;101427.00;6134995;23;20584;-67
2023/05/13 03:13:34;;;;;;;11.02;9.85;;;;;;;10.56;100.00;101384.69;6142137;23;20030;-68
2023/05/13 03:16:00;;;;;;;9.95;9.00;;;;;;;10.25;100.00;101340.41;6137895;23;20029;-67
2023/05/13 03:18:30;;;;;;;12.00;9.93;;;;;;;10.59;100.00;101415.19;6166795;23;20170;-67
2023/05/13 03:20:56;;;;;;;11.20;9.23;;;;;;;10.60;100.00;101401.13;6113664;23;20035;-67
2023/05/13 03:23:23;;;;;;;18.60;11.02;;;;;;;10.55;100.00;101405.72;6163962;23;20031;-67
2023/05/13 03:25:49;;;;;;;18.80;11.25;;;;;;;10.55;100.00;101396.06;6137909;23;20052;-68
2023/05/13 03:28:16;;;;;;;10.88;8.82;;;;;;;10.64;100.00;101404.50;6169382;23;20017;-67
2023/05/13 03:30:43;;;;;;;16.42;9.48;;;;;;;10.58;100.00;101395.97;6113643;23;20122;-67
2023/05/13 03:33:09;;;;;;;13.82;9.57;;;;;;;10.25;100.00;101350.91;6170014;23;20037;-67
2023/05/13 03:35:36;;;;;;;17.88;10.05;;;;;;;10.58;100.00;101413.47;6120818;23;20031;-67
2023/05/13 03:38:02;;;;;;;10.63;9.13;;;;;;;10.57;100.00;101406.53;6169004;23;20774;-67
2023/05/13 03:40:29;;;;;;;16.75;9.90;;;;;;;10.32;100.00;101370.78;6142512;23;20017;-67
2023/05/13 03:42:55;;;;;;;14.45;10.60;;;;;;;10.38;100.00;101375.78;6168520;23;20015;-67
2023/05/13 03:45:21;;;;;;;21.02;10.43;;;;;;;10.37;100.00;101384.56;6136938;23;20036;-67
2023/05/13 03:47:48;;;;;;;11.25;9.88;;;;;;;10.54;100.00;101406.63;6168639;23;20041;-67
2023/05/13 03:50:15;;;;;;;10.25;9.15;;;;;;;10.60;100.00;101403.75;6141290;23;20024;-67
2023/05/13 03:52:42;;;;;;;12.32;9.35;;;;;;;10.59;100.00;101409.94;6174997;23;20036;-67
2023/05/13 03:55:13;;;;;;;11.23;9.50;;;;;;;10.43;100.00;101393.97;6140664;23;20142;-66
2023/05/13 03:57:43;;;;;;;18.25;10.32;;;;;;;9.88;100.00;101297.34;6170353;23;20423;-70
2023/05/13 04:00:11;;;;;;;14.05;10.70;;;;;;;10.63;100.00;101414.16;6138935;23;20472;-70
2023/05/13 04:02:37;;;;;;;14.98;11.13;;;;;;;9.60;100.00;101250.34;6169587;23;20021;-70
2023/05/13 04:05:05;;;;;;;10.50;9.35;;;;;;;10.64;100.00;101413.22;6142475;23;20096;-70
2023/05/13 04:07:31;;;;;;;13.35;9.88;;;;;;;10.74;100.00;101416.31;6171953;23;20598;-72
2023/05/13 04:09:58;;;;;;;15.70;10.45;;;;;;;11.00;100.00;101417.00;6136767;23;20020;-70
2023/05/13 04:12:24;;;;;;;11.57;10.10;;;;;;;11.15;100.00;101405.84;6165491;23;20037;-70
2023/05/13 04:14:50;;;;;;;15.63;10.82;;;;;;;11.36;100.00;101425.06;6141003;23;20031;-70
2023/05/13 04:17:17;;;;;;;12.65;10.35;;;;;;;11.30;100.00;101401.69;6169622;23;20620;-70
2023/05/13 04:19:43;;;;;;;14.73;9.18;;;;;;;10.86;100.00;101316.00;6141773;23;20021;-70
2023/05/13 04:22:09;;;;;;;14.80;9.63;;;;;;;11.82;100.00;101428.25;6138396;23;20023;-70
2023/05/13 04:24:36;;;;;;;13.43;10.38;;;;;;;11.28;100.00;101272.16;6172669;23;20036;-70
2023/05/13 04:27:02;;;;;;;15.90;10.45;;;;;;;12.19;100.00;101358.19;6140492;23;20071;-70
2023/05/13 04:29:29;;;;;;;9.85;8.85;;;;;;;12.61;100.00;101367.53;6170424;23;20023;-70
2023/05/13 04:31:55;;;;;;;10.63;9.50;;;;;;;12.92;100.00;101406.34;6142952;23;20066;-70
2023/05/13 04:34:22;;;;;;;10.77;9.30;;;;;;;13.04;100.00;101362.69;6171519;23;20111;-70
2023/05/13 04:36:48;;;;;;;12.48;10.05;;;;;;;13.41;100.00;101399.47;6115827;23;20032;-70
2023/05/13 04:39:14;;;;;;;10.70;9.57;;;;;;;13.39;100.00;101344.22;6172773;23;20625;-70
2023/05/13 04:41:41;;;;;;;9.35;8.45;;;;;;;14.29;100.00;101420.19;6141668;23;20035;-70
2023/05/13 04:44:07;;;;;;;10.98;9.73;;;;;;;14.15;100.00;101407.75;6169009;23;20107;-70
2023/05/13 04:46:36;;;;;;;10.80;8.80;;;;;;;13.94;97.93;101390.47;6143502;23;20096;-70
2023/05/13 04:49:03;;;;;;;11.60;9.25;;;;;;;13.66;97.62;101380.59;6169861;23;20032;-70
2023/05/13 04:51:31;;;;;;;13.48;9.27;;;;;;;13.51;97.81;101325.09;6143913;23;20045;-70
2023/05/13 04:53:58;;;;;;;10.68;9.57;;;;;;;14.07;95.38;101377.44;6169907;23;20080;-70
2023/05/13 04:56:25;;;;;;;14.30;9.43;;;;;;;13.30;95.17;101313.91;6141293;23;20462;-70
2023/05/13 04:58:51;;;;;;;13.20;9.00;;;;;;;12.92;96.59;101305.38;6164487;23;20094;-71
2023/05/13 05:01:17;;;;;;;9.98;8.98;;;;;;;12.43;98.74;101303.50;6136561;23;20643;-70
2023/05/13 05:03:44;;;;;;;10.15;9.18;;;;;;;12.17;100.00;101339.84;6173629;23;20116;-70
2023/05/13 05:06:10;;;;;;;10.25;9.25;;;;;;;11.70;100.00;101315.75;6139462;23;20055;-70
2023/05/13 05:08:37;;;;;;;10.40;9.30;;;;;;;11.59;100.00;101363.59;6169831;23;20654;-70
2023/05/13 05:11:04;;;;;;;11.48;9.35;;;;;;;11.34;100.00;101363.84;6135858;23;20025;-71
2023/05/13 05:13:30;;;;;;;10.23;9.18;;;;;;;11.37;100.00;101390.84;6144102;23;20096;-69
2023/05/13 05:15:57;;;;;;;10.70;9.60;;;;;;;11.21;100.00;101360.91;6138009;23;20082;-70
2023/05/13 05:18:23;;;;;;;9.80;8.80;;;;;;;11.27;100.00;101407.09;6168375;23;20033;-69
2023/05/13 05:20:50;;;;;;;17.13;10.07;;;;;;;11.05;100.00;101384.38;6139265;23;20041;-69
2023/05/13 05:23:16;;;;;;;11.00;9.90;;;;;;;11.46;100.00;101441.28;6168409;23;20020;-69
2023/05/13 05:25:43;;;;;;;13.98;9.10;;;;;;;11.45;100.00;101426.47;6139523;23;20039;-69
2023/05/13 05:28:09;;;;;;;12.73;10.57;;;;;;;11.12;100.00;101392.84;6166625;23;20129;-69
2023/05/13 05:30:38;;;;;;;14.45;9.75;;;;;;;11.57;100.00;101452.19;6137422;23;20045;-69
2023/05/13 05:33:06;;;;;;;16.02;9.57;;;;;;;11.70;100.00;101465.63;6137716;23;20591;-69
2023/05/13 05:35:37;;;;;;;10.23;9.10;;;;;;;11.75;100.00;101437.38;6173626;23;20090;-70
2023/05/13 05:38:04;;;;;;;12.13;9.68;;;;;;;11.87;100.00;101444.69;6139374;23;20029;-69
2023/05/13 05:40:31;;;;;;;10.65;9.40;;;;;;;11.78;100.00;101442.47;6145239;23;20082;-69
2023/05/13 05:42:58;;;;;;;16.23;9.73;;;;;;;11.91;100.00;101446.31;6140851;23;20021;-70
2023/05/13 05:45:24;;;;;;;9.98;8.93;;;;;;;11.03;100.00;101275.91;6139928;23;20081;-70
2023/05/13 05:47:52;;;;;;;10.65;9.55;;;;;;;12.17;100.00;101446.88;6141840;23;20032;-70
2023/05/13 05:50:20;;;;;;;11.57;9.38;;;;;;;11.86;100.00;101393.00;6166553;23;20438;-70
2023/05/13 05:52:46;;;;;;;13.60;9.10;;;;;;;11.44;100.00;101291.53;6142780;23;20448;-69
2023/05/13 05:55:13;;;;;;;11.82;8.70;;;;;;;12.57;100.00;101448.47;6165707;23;20021;-69
2023/05/13 05:57:39;;;;;;;9.32;8.40;;;;;;;12.69;100.00;101439.09;6144328;23;20158;-69
2023/05/13 06:00:06;;;;;;;9.68;8.45;;;;;;;13.15;100.00;101471.06;6167350;23;20099;-69
2023/05/13 06:02:33;;;;;;;9.80;8.82;;;;;;;13.22;100.00;101465.47;6136323;23;20039;-69
2023/05/13 06:04:59;;;;;;;13.77;10.40;;;;;;;13.24;100.00;101468.88;6139628;23;20012;-69
2023/05/13 06:07:26;;;;;;;9.52;8.63;;;;;;;13.24;100.00;101455.69;6139154;23;20021;-69
2023/05/13 06:09:52;;;;;;;10.63;9.07;;;;;;;13.58;100.00;101475.94;6166399;23;20037;-69
2023/05/13 06:12:18;;;;;;;12.65;9.25;;;;;;;13.64;100.00;101470.34;6135240;23;20021;-69
2023/05/13 06:14:45;;;;;;;8.85;7.88;;;;;;;13.75;100.00;101465.34;6168432;23;20036;-70
2023/05/13 06:17:13;;;;;;;13.65;10.70;;;;;;;13.38;100.00;101421.59;6141081;23;20033;-70
2023/05/13 06:19:43;;;;;;;11.38;9.50;;;;;;;13.07;100.00;101417.91;6170141;23;20595;-69
2023/05/13 06:22:10;;;;;;;12.88;10.40;;;;;;;13.32;100.00;101464.09;6140266;23;20024;-70
2023/05/13 06:24:37;;;;;;;9.63;8.70;;;;;;;12.43;100.00;101318.41;6167734;23;20028;-70
2023/05/13 06:27:04;;;;;;;9.98;8.98;;;;;;;12.64;100.00;101363.88;6084519;23;20826;-70
2023/05/13 06:29:31;;;;;;;10.45;8.57;;;;;;;13.56;100.00;101481.28;6142546;23;20021;-70
2023/05/13 06:31:57;;;;;;;12.18;10.35;;;;;;;13.60;100.00;101457.41;6112391;23;20025;-69
2023/05/13 06:34:24;;;;;;;12.65;9.13;;;;;;;13.39;100.00;101415.41;6136483;23;20027;-70
2023/05/13 06:36:50;;;;;;;10.65;9.73;;;;;;;12.97;100.00;101392.94;6141132;23;20044;-69
2023/05/13 06:39:16;;;;;;;10.98;9.57;;;;;;;13.41;100.00;101461.00;6109596;23;20577;-70
2023/05/13 06:41:43;;;;;;;11.73;9.68;;;;;;;13.24;100.00;101498.72;6168070;23;20119;-69
2023/05/13 06:44:09;;;;;;;10.13;9.07;;;;;;;13.31;100.00;101467.66;6142170;23;20016;-69
2023/05/13 06:46:36;;;;;;;11.95;9.73;;;;;;;13.45;100.00;101483.66;6151416;23;20411;-69
2023/05/13 06:49:02;;;;;;;11.98;10.13;;;;;;;13.36;100.00;101447.19;6140780;23;20084;-70
2023/05/13 06:51:31;;;;;;;11.73;10.52;;;;;;;13.41;100.00;101424.09;6166214;23;20039;-69
2023/05/13 06:53:58;;;;;;;13.57;9.95;;;;;;;13.90;100.00;101471.59;6137582;23;20040;-70
2023/05/13 06:56:24;;;;;;;11.52;9.90;;;;;;;14.31;100.00;101486.97;6169047;23;20024;-69
2023/05/13 06:58:52;;;;;;;14.60;10.93;;;;;;;14.72;100.00;101488.25;6128667;23;20559;-69
2023/05/13 07:01:18;;;;;;;12.25;9.70;;;;;;;15.01;100.00;101475.97;6138070;23;20027;-69
2023/05/13 07:03:45;;;;;;;10.82;9.07;;;;;;;15.26;97.35;101475.41;6166439;23;20298;-69
2023/05/13 07:06:11;;;;;;;14.52;9.82;;;;;;;15.60;95.53;101469.88;6135216;23;20551;-69
2023/05/13 07:08:39;;;;;;;11.85;9.88;;;;;;;15.34;92.40;101393.81;6168416;23;20027;-72
2023/05/13 07:11:05;;;;;;;13.00;9.45;;;;;;;15.36;90.29;101428.09;6140782;23;20033;-69
2023/05/13 07:13:33;;;;;;;10.27;9.07;;;;;;;15.26;90.06;101416.38;6146650;23;20024;-70
2023/05/13 07:16:01;;;;;;;10.70;8.82;;;;;;;15.41;89.98;101419.88;6116302;23;20086;-70
2023/05/13 07:18:28;;;;;;;12.88;9.77;;;;;;;15.84;88.89;101415.47;6171435;23;20122;-70
2023/05/13 07:20:57;;;;;;;10.68;9.05;;;;;;;15.16;88.15;101364.03;6142370;23;20127;-69
2023/05/13 07:23:24;;;;;;;11.90;10.60;;;;;;;15.71;87.33;101362.41;6172975;23;20099;-70
2023/05/13 07:25:51;;;;;;;11.65;9.10;;;;;;;16.23;84.92;101392.66;6145226;23;20024;-70
2023/05/13 07:28:19;;;;;;;12.05;10.18;;;;;;;16.46;83.16;101345.28;6141499;23;20026;-71
2023/05/13 07:30:46;;;;;;;10.70;9.60;;;;;;;16.92;80.22;101353.66;6141026;23;20084;-70
2023/05/13 07:33:13;;;;;;;12.45;9.60;;;;;;;16.53;78.68;101301.53;6164187;23;20092;-70
2023/05/13 07:35:40;;;;;;;9.88;8.93;;;;;;;16.51;78.81;101324.63;6142755;23;20033;-70
2023/05/13 07:38:08;;;;;;;11.85;9.70;;;;;;;16.13;78.92;101291.78;6168166;23;20027;-70
2023/05/13 07:40:34;;;;;;;9.75;8.82;;;;;;;15.95;79.02;101263.88;6143149;23;20309;-70
2023/05/13 07:43:00;;;;;;;10.63;9.35;;;;;;;16.13;79.55;101306.81;6167509;23;20092;-70
2023/05/13 07:45:27;;;;;;;10.38;9.25;;;;;;;16.08;79.21;101278.00;6140399;23;20032;-70
2023/05/13 07:47:55;;;;;;;10.25;9.13;;;;;;;16.30;78.26;101264.19;6170171;23;20012;-70
2023/05/13 07:50:21;;;;;;;10.65;9.65;;;;;;;16.57;76.71;101283.63;6139037;23;20033;-70
2023/05/13 07:52:49;;;;;;;10.88;9.30;;;;;;;16.42;75.52;101265.16;6170236;23;20053;-70
2023/05/13 07:55:16;;;;;;;10.05;9.05;;;;;;;16.44;73.75;101226.19;6116920;23;20032;-70
2023/05/13 07:57:42;;;;;;;10.55;9.05;;;;;;;16.59;74.32;101239.31;6138491;23;20059;-70
2023/05/13 08:00:09;;;;;;;11.60;10.00;;;;;;;16.35;77.59;101285.91;6170346;23;20477;-70
2023/05/13 08:02:37;;;;;;;11.20;9.98;;;;;;;16.70;78.84;101311.00;6141948;23;20048;-70
2023/05/13 08:05:05;;;;;;;14.52;10.50;;;;;;;17.14;79.15;101342.41;6164372;23;20016;-70
2023/05/13 08:07:31;;;;;;;10.80;9.70;;;;;;;17.23;77.98;101311.75;6138512;23;20036;-69
2023/05/13 08:09:58;;;;;;;10.57;9.48;;;;;;;16.17;77.48;101117.66;6166942;23;20150;-69
2023/05/13 08:12:25;;;;;;;10.65;9.55;;;;;;;17.52;75.89;101247.81;6143952;23;20134;-69
2023/05/13 08:14:51;;;;;;;10.20;9.30;;;;;;;17.66;73.80;101214.91;6143878;23;20040;-69
2023/05/13 08:17:18;;;;;;;10.27;9.30;;;;;;;18.33;71.34;101225.81;6142596;23;20605;-70
2023/05/13 08:19:45;;;;;;;12.45;9.20;;;;;;;18.07;72.70;101219.00;6172201;23;20039;-69
2023/05/13 08:22:11;;;;;;;11.93;10.68;;;;;;;18.30;71.12;101215.44;6112076;23;20074;-69
2023/05/13 08:24:39;;;;;;;10.20;9.20;;;;;;;18.26;70.55;101197.16;6175766;23;20439;-70
2023/05/13 08:27:06;;;;;;;9.48;8.68;;;;;;;18.85;70.47;101210.31;6121984;23;20032;-69
2023/05/13 08:29:32;;;;;;;10.48;9.48;;;;;;;18.38;67.82;101062.50;6173808;23;20024;-70
2023/05/13 08:31:58;;;;;;;9.88;8.85;;;;;;;19.06;65.57;101104.03;6146397;23;20036;-70
2023/05/13 08:34:25;;;;;;;11.18;9.02;;;;;;;19.67;65.32;101131.84;6171889;23;20090;-70
2023/05/13 08:36:51;;;;;;;10.30;9.30;;;;;;;18.71;64.62;101051.84;6142469;23;20029;-70
2023/05/13 08:39:18;;;;;;;10.73;9.68;;;;;;;19.12;65.83;101110.63;6171171;23;20572;-70
2023/05/13 08:41:45;;;;;;;8.43;7.82;;;;;;;18.85;64.36;101050.75;6147980;23;20032;-70
2023/05/13 08:44:12;;;;;;;10.75;9.65;;;;;;;18.90;65.27;101069.84;6169194;23;20019;-70
2023/05/13 08:46:42;;;;;;;13.63;9.50;;;;;;;18.57;66.27;101073.38;6141692;23;20420;-70
2023/05/13 08:49:09;;;;;;;10.20;9.13;;;;;;;18.15;67.83;101083.78;6173338;23;20025;-70
2023/05/13 08:51:36;;;;;;;10.63;9.07;;;;;;;18.18;68.96;101135.81;6142653;23;20028;-69
2023/05/13 08:54:02;;;;;;;10.48;9.48;;;;;;;17.76;69.80;101077.91;6167584;23;20107;-70
2023/05/13 08:56:29;;;;;;;10.05;8.93;;;;;;;18.46;69.54;101158.44;6145617;23;20097;-70
2023/05/13 08:58:55;;;;;;;17.42;9.55;;;;;;;18.40;68.51;101116.38;6173249;23;20028;-70
2023/05/13 09:01:23;;;;;;;12.00;9.88;;;;;;;17.67;70.16;101067.97;6142071;23;20698;-70
2023/05/13 09:04:10;;;;;;;9.90;9.00;;;;;;;18.17;72.26;101208.53;6172723;23;20076;-70
2023/05/13 09:06:37;;;;;;;12.27;9.18;;;;;;;17.37;71.58;101050.75;6143515;23;20583;-69
2023/05/13 09:09:04;;;;;;;9.65;8.82;;;;;;;18.63;71.17;101189.84;6142182;23;20536;-70
2023/05/13 09:11:32;;;;;;;15.70;10.52;;;;;;;18.47;72.00;101160.97;6133775;23;20024;-70
2023/05/13 09:14:01;;;;;;;10.45;9.40;;;;;;;19.17;69.99;101182.13;6154819;23;20083;-70
2023/05/13 09:16:28;;;;;;;9.50;8.70;;;;;;;19.53;69.26;101186.25;6123816;23;20096;-70
2023/05/13 09:19:03;;;;;;;10.00;9.07;;;;;;;19.15;68.26;101088.28;6116293;23;20067;-70
2023/05/13 09:21:34;;;;;;;10.18;8.85;;;;;;;18.99;67.29;101044.31;6125029;23;20020;-70
2023/05/13 09:24:17;;;;;;;10.60;9.60;;;;;;;19.38;66.98;101095.19;6144494;23;20021;-70
2023/05/13 09:26:44;;;;;;;10.60;8.57;;;;;;;19.69;64.26;101061.50;6120972;23;22188;-70
2023/05/13 09:29:24;;;;;;;10.27;9.38;;;;;;;19.55;61.82;100950.03;6117804;23;20788;-70
2023/05/13 09:31:57;;;;;;;8.93;8.15;;;;;;;19.60;59.00;100827.16;6094708;23;20117;-70
2023/05/13 09:34:26;;;;;;;8.93;8.13;;;;;;;19.64;58.57;100799.28;6149834;23;20017;-70
2023/05/13 09:36:56;;;;;;;10.88;8.23;;;;;;;19.88;58.69;100863.69;6123830;23;20527;-70
2023/05/13 09:39:23;;;;;;;9.57;8.77;;;;;;;19.70;59.35;100849.31;6156501;23;20024;-70
2023/05/13 09:41:51;;;;;;;9.10;8.30;;;;;;;20.06;59.76;100930.50;6119680;23;20107;-70
2023/05/13 09:44:18;;;;;;;10.32;8.70;;;;;;;20.07;61.70;100992.63;6153940;23;20065;-70
2023/05/13 09:46:44;;;;;;;9.73;8.50;;;;;;;20.17;61.62;100985.50;6119270;23;20040;-70
2023/05/13 09:49:10;;;;;;;9.68;8.18;;;;;;;20.38;61.60;101036.06;6155400;23;20668;-70
2023/05/13 09:51:37;;;;;;;9.98;8.00;;;;;;;20.30;60.48;100945.28;6126032;23;20092;-70
2023/05/13 09:54:05;;;;;;;9.60;8.77;;;;;;;20.80;59.85;101003.06;6145845;23;20380;-70
2023/05/13 09:56:34;;;;;;;7.95;7.25;;;;;;;20.44;54.55;100741.44;6114340;23;20107;-70
2023/05/13 09:59:01;;;;;;;8.10;7.20;;;;;;;20.22;52.67;100700.78;6117355;23;20230;-70
2023/05/13 10:01:29;;;;;;;8.50;7.80;;;;;;;20.45;53.79;100767.13;6118135;23;20089;-70
2023/05/13 10:03:58;;;;;;;8.27;7.68;;;;;;;20.71;53.79;100828.72;6152004;23;20016;-70
2023/05/13 10:06:27;;;;;;;9.00;7.78;;;;;;;20.95;52.96;100814.91;6122256;23;20021;-70
2023/05/13 10:08:56;;;;;;;8.30;7.60;;;;;;;21.09;52.35;100802.94;6123703;23;20076;-70
2023/05/13 10:11:24;;;;;;;8.32;7.25;;;;;;;21.01;51.20;100738.78;6131789;23;20021;-70
2023/05/13 10:13:57;;;;;;;7.68;7.15;;;;;;;21.31;50.21;100749.16;6170704;23;20391;-70
2023/05/13 10:16:25;;;;;;;8.70;7.68;;;;;;;21.45;52.06;100845.81;6137187;23;20026;-70
2023/05/13 10:18:52;;;;;;;8.48;7.68;;;;;;;21.64;51.07;100845.72;6171846;23;20023;-70
2023/05/13 10:21:19;;;;;;;9.07;8.27;;;;;;;21.71;51.62;100852.16;6134957;23;20029;-70
2023/05/13 10:23:46;;;;;;;7.78;7.10;;;;;;;21.77;50.55;100810.66;6170918;23;20012;-70
2023/05/13 10:26:13;;;;;;;8.20;7.60;;;;;;;21.62;50.14;100754.22;6117098;23;20024;-70
2023/05/13 10:28:41;;;;;;;9.20;7.25;;;;;;;22.09;49.47;100827.97;6172352;23;20642;-70
2023/05/13 10:31:08;;;;;;;8.40;7.53;;;;;;;21.70;51.36;100829.09;6140070;23;20032;-70
2023/05/13 10:33:34;;;;;;;8.73;7.07;;;;;;;21.46;50.74;100786.91;6167534;23;20032;-70
2023/05/13 10:36:38;;;;;;;7.53;7.03;;;;;;;21.62;48.31;100732.00;6137173;23;20037;-70
2023/05/13 10:39:18;;;;;;;7.68;7.13;;;;;;;21.49;47.07;100692.34;6144110;23;20691;-70
2023/05/13 10:42:18;;;;;;;7.72;7.07;;;;;;;21.21;47.09;100686.13;6137870;23;20024;-70
2023/05/13 10:44:44;;;;;;;8.05;7.43;;;;;;;21.18;47.75;100705.13;6149386;23;20027;-70
2023/05/13 10:47:12;;;;;;;7.70;7.10;;;;;;;21.57;48.19;100756.50;6136771;23;20037;-70
2023/05/13 10:49:39;;;;;;;7.55;6.95;;;;;;;21.77;47.32;100759.03;6148392;23;21110;-70
2023/05/13 10:52:07;;;;;;;7.82;7.00;;;;;;;20.48;45.90;100470.91;6142169;23;20040;-70
2023/05/13 10:54:38;;;;;;;7.55;7.05;;;;;;;21.70;47.93;100756.97;6174500;23;20334;-70
2023/05/13 10:57:05;;;;;;;7.20;6.70;;;;;;;21.68;48.47;100792.84;6146631;23;20025;-70
2023/05/13 10:59:33;;;;;;;10.27;7.47;;;;;;;21.74;47.03;100736.13;6172133;23;20020;-70
2023/05/13 11:02:02;;;;;;;7.30;6.70;;;;;;;22.01;48.10;100823.41;6142996;23;20084;-69
2023/05/13 11:04:28;;;;;;;7.38;6.88;;;;;;;21.70;48.11;100804.22;6163179;23;20113;-70
2023/05/13 11:07:13;;;;;;;7.57;6.97;;;;;;;22.09;46.67;100799.44;6118646;23;20596;-70
2023/05/13 11:09:40;;;;;;;7.10;6.60;;;;;;;22.14;46.39;100780.28;6146584;23;20028;-69
2023/05/13 11:12:13;;;;;;;7.85;7.15;;;;;;;21.96;45.80;100709.97;6127128;23;20037;-70
2023/05/13 11:14:42;;;;;;;7.10;6.60;;;;;;;21.83;44.37;100676.47;6131154;23;20095;-70
2023/05/13 11:17:10;;;;;;;8.20;7.60;;;;;;;21.63;46.23;100734.53;6119739;23;20026;-71